Time;durP1;ratioP1;P1;durP2;ratioP2;P2;SDS_P1;SDS_P2;PMS_P1;PMS_P2;Temp;Humidity;BMP_temperature;BMP_pressure;BME280_temperature;BME280_humidity;BME280_pressure;Samples;Min_cycle;Max_cycle;Signal;HPM_P1;HPM_P2
2022/09/10 04:01:57;;;;;;;6.77;3.23;;;14.90;99.90;;;;;;5310042;23;20568;-62
2022/09/10 04:04:24;;;;;;;4.30;2.50;;;14.90;99.90;;;;;;5013676;28;20959;-64
2022/09/10 04:06:52;;;;;;;2.80;2.60;;;14.90;99.90;;;;;;5014115;28;20485;-62
2022/09/10 04:09:19;;;;;;;3.00;2.70;;;15.00;99.90;;;;;;5014180;28;20453;-62
2022/09/10 04:11:46;;;;;;;4.80;3.03;;;15.00;99.90;;;;;;5014151;28;20477;-62
2022/09/10 04:14:12;;;;;;;3.43;3.00;;;15.00;99.90;;;;;;5014206;28;20457;-62
2022/09/10 04:16:39;;;;;;;4.83;2.80;;;15.10;99.90;;;;;;5013787;28;20453;-62
2022/09/10 04:19:08;;;;;;;4.30;2.90;;;15.10;99.90;;;;;;5014153;28;20500;-62
2022/09/10 04:21:35;;;;;;;6.50;3.63;;;15.10;99.90;;;;;;5013745;28;20872;-62
2022/09/10 04:24:02;;;;;;;3.87;2.67;;;15.10;99.90;;;;;;5014749;28;21015;-62
2022/09/10 04:26:28;;;;;;;2.90;2.70;;;15.10;99.90;;;;;;5014756;28;20619;-63
2022/09/10 04:28:55;;;;;;;4.00;2.80;;;15.10;99.90;;;;;;5014166;28;20818;-63
2022/09/10 04:31:22;;;;;;;3.20;2.33;;;15.20;99.90;;;;;;5013730;28;20473;-62
2022/09/10 04:33:48;;;;;;;5.83;2.37;;;15.20;99.90;;;;;;5013952;28;20457;-62
2022/09/10 04:36:16;;;;;;;2.33;2.13;;;15.10;99.90;;;;;;5013988;28;20519;-62
2022/09/10 04:38:43;;;;;;;3.90;2.60;;;15.10;99.90;;;;;;5013942;28;20845;-63
2022/09/10 04:41:11;;;;;;;2.37;2.20;;;15.10;99.90;;;;;;5013947;28;20472;-63
2022/09/10 04:43:39;;;;;;;4.27;2.17;;;15.10;99.90;;;;;;5013558;28;21043;-63
2022/09/10 04:46:06;;;;;;;2.50;2.13;;;15.00;99.90;;;;;;5013811;28;20876;-63
2022/09/10 04:48:33;;;;;;;2.30;1.93;;;15.00;99.90;;;;;;5013830;28;20457;-63
2022/09/10 04:50:59;;;;;;;3.23;2.67;;;15.00;99.90;;;;;;5013420;28;20991;-63
2022/09/10 04:53:28;;;;;;;5.07;2.83;;;15.00;99.90;;;;;;5013597;28;20484;-63
2022/09/10 04:55:55;;;;;;;2.47;2.10;;;15.00;99.90;;;;;;5013707;28;20786;-63
2022/09/10 04:58:22;;;;;;;1.73;1.70;;;15.00;99.90;;;;;;5013749;28;20452;-63
2022/09/10 05:00:50;;;;;;;3.37;2.30;;;15.00;99.90;;;;;;5013407;28;20491;-63
2022/09/10 05:03:16;;;;;;;2.20;2.10;;;15.00;99.90;;;;;;5013724;28;20445;-63
2022/09/10 05:05:44;;;;;;;3.40;1.70;;;15.00;99.90;;;;;;5013568;28;20567;-63
2022/09/10 05:08:11;;;;;;;4.47;1.90;;;15.00;99.90;;;;;;5013302;28;20979;-63
2022/09/10 05:10:40;;;;;;;1.73;1.63;;;15.10;99.90;;;;;;5013554;28;20509;-64
2022/09/10 05:13:07;;;;;;;2.10;1.83;;;15.10;99.90;;;;;;5013662;28;20456;-62
2022/09/10 05:15:34;;;;;;;4.57;2.30;;;15.10;99.90;;;;;;5013623;28;20511;-62
2022/09/10 05:18:01;;;;;;;2.00;1.90;;;15.10;99.90;;;;;;5015836;28;20482;-62
2022/09/10 05:20:28;;;;;;;2.27;2.07;;;15.10;99.90;;;;;;5017197;28;20507;-62
2022/09/10 05:22:55;;;;;;;2.20;1.23;;;15.10;99.90;;;;;;5017356;28;20506;-63
2022/09/10 05:25:22;;;;;;;2.23;1.57;;;15.10;99.90;;;;;;5017321;28;20837;-63
2022/09/10 05:27:50;;;;;;;1.53;1.43;;;15.10;99.90;;;;;;5017497;28;20449;-63
2022/09/10 05:30:17;;;;;;;1.80;1.20;;;15.10;99.90;;;;;;5017263;28;20463;-63
2022/09/10 05:32:44;;;;;;;2.37;1.70;;;15.10;99.90;;;;;;5017102;28;20452;-63
2022/09/10 05:35:10;;;;;;;1.53;1.43;;;15.10;99.90;;;;;;5017080;28;20511;-63
2022/09/10 05:37:37;;;;;;;2.17;1.90;;;15.10;99.90;;;;;;5016882;28;20453;-63
2022/09/10 05:40:05;;;;;;;1.70;1.63;;;15.10;99.90;;;;;;5016965;28;20797;-63
2022/09/10 05:42:32;;;;;;;4.00;1.80;;;15.10;99.90;;;;;;5016560;28;20984;-63
2022/09/10 05:45:00;;;;;;;1.47;1.37;;;15.10;99.90;;;;;;5016710;28;20457;-63
2022/09/10 05:47:27;;;;;;;2.20;1.60;;;15.10;99.90;;;;;;5016760;28;20511;-63
2022/09/10 05:49:55;;;;;;;2.10;1.50;;;15.10;99.90;;;;;;5016719;28;20547;-63
2022/09/10 05:52:23;;;;;;;1.83;1.73;;;15.20;99.90;;;;;;5016659;28;20580;-63
2022/09/10 05:54:49;;;;;;;7.20;1.87;;;15.20;99.90;;;;;;5016609;28;20549;-63
2022/09/10 05:57:16;;;;;;;3.43;1.80;;;15.20;99.90;;;;;;5016558;28;20453;-63
2022/09/10 05:59:45;;;;;;;2.73;1.60;;;15.20;99.90;;;;;;5016475;28;20453;-63
2022/09/10 06:02:16;;;;;;;2.47;1.80;;;15.20;99.90;;;;;;5016302;28;20571;-63
2022/09/10 06:04:43;;;;;;;1.87;1.50;;;15.20;99.90;;;;;;5016250;28;20873;-62
2022/09/10 06:07:10;;;;;;;3.00;1.63;;;15.30;99.90;;;;;;5016322;28;20477;-62
2022/09/10 06:09:36;;;;;;;1.93;1.50;;;15.30;99.90;;;;;;5016042;28;20796;-62
2022/09/10 06:12:05;;;;;;;4.17;2.10;;;15.20;99.90;;;;;;5015935;28;20983;-62
2022/09/10 06:14:32;;;;;;;1.93;1.77;;;15.30;99.90;;;;;;5016304;28;20515;-62
2022/09/10 06:16:58;;;;;;;1.87;1.60;;;15.30;99.90;;;;;;5016256;28;20449;-62
2022/09/10 06:19:26;;;;;;;1.60;1.50;;;15.20;99.90;;;;;;5016168;28;20506;-62
2022/09/10 06:21:53;;;;;;;1.63;1.53;;;15.20;99.90;;;;;;5016041;28;20473;-62
2022/09/10 06:24:20;;;;;;;1.50;1.40;;;15.20;99.90;;;;;;5016118;28;20878;-62
2022/09/10 06:26:48;;;;;;;2.83;2.00;;;15.30;99.90;;;;;;5015990;28;20946;-62
2022/09/10 06:29:15;;;;;;;3.37;1.50;;;15.40;99.90;;;;;;5015476;28;20457;-62
2022/09/10 06:31:42;;;;;;;1.30;1.30;;;15.40;99.90;;;;;;5015910;28;20889;-62
2022/09/10 06:34:08;;;;;;;2.47;1.93;;;15.50;99.90;;;;;;5018442;28;20483;-62
2022/09/10 06:36:37;;;;;;;1.40;1.40;;;15.50;99.90;;;;;;5016538;28;20523;-62
2022/09/10 06:39:04;;;;;;;1.83;1.73;;;15.50;99.90;;;;;;5016205;28;20464;-62
2022/09/10 06:41:30;;;;;;;2.03;1.80;;;15.60;99.90;;;;;;5015739;28;20476;-62
2022/09/10 06:43:57;;;;;;;1.47;1.37;;;15.60;99.90;;;;;;5015762;28;20453;-61
2022/09/10 06:46:25;;;;;;;2.77;1.50;;;15.70;99.90;;;;;;5015531;28;20477;-62
2022/09/10 06:48:51;;;;;;;1.40;1.30;;;15.80;99.90;;;;;;5015644;28;20579;-63
2022/09/10 06:51:18;;;;;;;3.20;1.33;;;15.80;99.90;;;;;;5015289;28;20480;-62
2022/09/10 06:53:46;;;;;;;2.70;1.40;;;15.90;99.90;;;;;;5015500;28;20516;-63
2022/09/10 06:56:13;;;;;;;1.80;1.47;;;15.90;99.90;;;;;;5015454;28;20445;-62
2022/09/10 06:58:40;;;;;;;4.10;1.40;;;16.00;99.90;;;;;;5015181;28;20457;-62
2022/09/10 07:01:08;;;;;;;1.70;1.30;;;16.10;99.90;;;;;;5014940;28;20988;-63
2022/09/10 07:03:36;;;;;;;1.80;1.20;;;16.10;99.90;;;;;;5015246;28;20551;-63
2022/09/10 07:06:04;;;;;;;2.07;1.00;;;16.20;99.90;;;;;;5015154;28;20492;-63
2022/09/10 07:08:31;;;;;;;2.03;1.40;;;16.30;99.90;;;;;;5015145;28;20483;-64
2022/09/10 07:11:02;;;;;;;3.63;1.20;;;16.40;99.90;;;;;;5015111;28;20561;-62
2022/09/10 07:13:29;;;;;;;2.30;1.20;;;16.40;99.90;;;;;;5015171;28;20437;-62
2022/09/10 07:15:56;;;;;;;3.70;1.30;;;16.50;99.90;;;;;;5015330;28;20507;-61
2022/09/10 07:18:23;;;;;;;1.90;1.20;;;16.60;99.90;;;;;;5014894;28;20453;-65
2022/09/10 07:20:50;;;;;;;2.00;0.93;;;16.80;99.90;;;;;;5014527;28;20980;-63
2022/09/10 07:23:18;;;;;;;1.17;1.03;;;16.90;99.90;;;;;;5015042;28;20457;-63
2022/09/10 07:25:46;;;;;;;1.00;0.90;;;17.10;99.90;;;;;;5014516;28;20963;-62
2022/09/10 07:28:16;;;;;;;1.30;1.20;;;17.20;99.90;;;;;;5014729;28;20536;-61
2022/09/10 07:30:45;;;;;;;1.50;1.40;;;17.40;99.90;;;;;;5014794;28;20481;-61
2022/09/10 07:33:11;;;;;;;1.30;1.20;;;17.50;99.90;;;;;;5014793;28;20460;-61
2022/09/10 07:35:39;;;;;;;0.70;0.70;;;17.70;99.90;;;;;;5014680;28;20456;-61
2022/09/10 07:38:07;;;;;;;2.53;1.30;;;17.80;99.90;;;;;;5014583;28;20515;-61
2022/09/10 07:40:33;;;;;;;2.20;1.00;;;17.80;99.90;;;;;;5013684;28;20468;-61
2022/09/10 07:43:00;;;;;;;1.10;1.00;;;17.90;99.90;;;;;;5014639;28;20511;-61
2022/09/10 07:45:29;;;;;;;4.00;0.97;;;18.00;99.90;;;;;;5014448;28;20863;-61
2022/09/10 07:47:55;;;;;;;2.30;0.97;;;18.00;99.90;;;;;;5014440;28;20487;-61
2022/09/10 07:50:22;;;;;;;1.87;0.90;;;18.00;99.90;;;;;;5014393;28;20460;-60
2022/09/10 07:52:49;;;;;;;0.73;0.73;;;18.00;99.90;;;;;;5014369;28;20452;-60
2022/09/10 07:55:16;;;;;;;2.70;1.50;;;18.00;99.90;;;;;;5014356;28;20457;-61
2022/09/10 07:57:44;;;;;;;14.17;2.67;;;18.00;99.90;;;;;;5014404;28;20464;-61
2022/09/10 08:00:15;;;;;;;3.07;1.17;;;18.00;99.90;;;;;;5014324;28;20457;-61
2022/09/10 08:02:44;;;;;;;0.70;0.70;;;18.10;99.90;;;;;;5014341;28;20448;-61
2022/09/10 08:05:12;;;;;;;3.83;0.93;;;18.20;99.90;;;;;;5014298;28;20507;-61
2022/09/10 08:07:39;;;;;;;2.10;0.97;;;18.20;99.90;;;;;;5014074;28;20476;-61
2022/09/10 08:10:08;;;;;;;1.07;1.00;;;18.30;99.90;;;;;;5014643;28;20461;-61
2022/09/10 08:12:35;;;;;;;1.10;1.00;;;18.40;99.90;;;;;;5013973;28;20527;-60
2022/09/10 08:15:02;;;;;;;1.70;1.00;;;18.50;99.90;;;;;;5014085;28;20511;-61
2022/09/10 08:17:29;;;;;;;1.40;0.90;;;18.50;99.90;;;;;;5014088;28;20816;-61
2022/09/10 08:19:58;;;;;;;1.70;1.00;;;18.60;99.90;;;;;;5014583;28;20503;-61
2022/09/10 08:22:25;;;;;;;0.87;0.70;;;18.70;99.90;;;;;;5014076;28;20557;-61
2022/09/10 08:24:52;;;;;;;1.03;0.83;;;18.90;99.90;;;;;;5013894;28;20456;-61
2022/09/10 08:27:18;;;;;;;0.90;0.90;;;19.10;99.90;;;;;;5013869;28;20548;-61
2022/09/10 08:29:45;;;;;;;2.10;1.20;;;19.80;99.90;;;;;;5013840;28;20452;-61
2022/09/10 08:32:12;;;;;;;1.73;0.90;;;20.40;99.90;;;;;;5013835;28;20472;-61
2022/09/10 08:34:39;;;;;;;1.67;1.20;;;21.00;99.90;;;;;;5013994;28;20524;-61
2022/09/10 08:37:07;;;;;;;1.33;0.90;;;21.40;99.90;;;;;;5013847;28;20459;-61
2022/09/10 08:39:34;;;;;;;1.07;1.03;;;21.50;99.90;;;;;;5013795;28;20506;-61
2022/09/10 08:42:05;;;;;;;4.63;1.00;;;21.40;99.90;;;;;;5013775;28;20476;-61
2022/09/10 08:44:38;;;;;;;2.10;0.67;;;21.30;99.90;;;;;;5013850;28;20491;-61
2022/09/10 08:47:19;;;;;;;0.93;0.70;;;21.10;99.90;;;;;;5014175;28;20461;-61
2022/09/10 08:49:51;;;;;;;0.80;0.63;;;21.00;99.90;;;;;;5014674;28;20448;-61
2022/09/10 08:52:26;;;;;;;1.93;0.90;;;20.80;99.90;;;;;;5016572;28;20481;-61
2022/09/10 08:54:59;;;;;;;4.13;0.90;;;20.60;99.90;;;;;;5018437;28;20476;-61
2022/09/10 08:57:31;;;;;;;3.17;1.10;;;20.30;99.90;;;;;;5017705;28;20471;-60
2022/09/10 08:59:59;;;;;;;1.60;1.10;;;20.20;99.90;;;;;;5017702;28;20441;-61
2022/09/10 09:02:33;;;;;;;1.90;0.90;;;20.30;99.90;;;;;;5017089;28;20485;-60
2022/09/10 09:05:05;;;;;;;1.17;0.77;;;20.30;99.90;;;;;;5017456;28;20506;-60
2022/09/10 09:07:36;;;;;;;1.50;1.30;;;20.40;99.90;;;;;;5017344;28;20468;-61
2022/09/10 09:10:05;;;;;;;1.53;0.90;;;20.50;99.90;;;;;;5017195;28;20901;-60
2022/09/10 09:12:39;;;;;;;1.53;1.30;;;20.60;99.90;;;;;;5017119;28;20522;-60
2022/09/10 09:15:12;;;;;;;4.10;1.30;;;20.60;99.90;;;;;;5017306;28;20436;-61
2022/09/10 09:17:50;;;;;;;2.10;1.10;;;20.60;99.90;;;;;;5016850;28;20904;-61
2022/09/10 09:20:18;;;;;;;1.77;0.90;;;20.70;99.90;;;;;;5017261;28;20440;-61
2022/09/10 09:22:52;;;;;;;2.97;1.10;;;20.80;99.90;;;;;;5017131;28;20456;-61
2022/09/10 09:25:23;;;;;;;1.47;1.00;;;21.10;99.90;;;;;;5017307;28;20495;-61
2022/09/10 09:27:54;;;;;;;1.83;1.23;;;21.50;99.90;;;;;;5017060;28;20515;-61
2022/09/10 09:30:25;;;;;;;3.93;1.10;;;21.70;99.90;;;;;;5016996;28;20531;-61
2022/09/10 09:32:53;;;;;;;1.33;1.20;;;21.90;99.90;;;;;;5016598;28;20920;-61
2022/09/10 09:35:27;;;;;;;3.67;1.30;;;21.80;99.90;;;;;;5016468;28;20484;-62
2022/09/10 09:38:14;;;;;;;2.37;1.03;;;21.90;99.90;;;;;;5017227;28;20906;-61
2022/09/10 09:40:47;;;;;;;3.13;1.20;;;21.90;99.90;;;;;;5016894;28;20871;-62
2022/09/10 09:43:22;;;;;;;2.00;1.07;;;21.90;99.90;;;;;;5016506;28;21010;-61
2022/09/10 09:45:51;;;;;;;2.00;0.97;;;21.80;99.90;;;;;;5016844;28;20447;-61
2022/09/10 09:48:20;;;;;;;3.57;1.43;;;21.70;99.90;;;;;;5016568;28;20480;-61
2022/09/10 09:50:49;;;;;;;4.47;1.20;;;21.60;99.90;;;;;;5016717;28;20523;-61
2022/09/10 09:53:21;;;;;;;2.03;0.90;;;21.50;99.90;;;;;;5016559;28;20457;-61
2022/09/10 09:55:52;;;;;;;2.30;1.10;;;21.30;99.90;;;;;;5016607;28;20437;-61
2022/09/10 09:58:33;;;;;;;2.77;1.30;;;21.10;99.90;;;;;;5016261;28;20928;-61
2022/09/10 10:01:13;;;;;;;3.40;0.90;;;21.00;99.90;;;;;;5016092;28;20488;-61
2022/09/10 10:03:48;;;;;;;3.50;0.80;;;20.80;99.90;;;;;;5015489;28;20437;-61
2022/09/10 10:06:18;;;;;;;2.83;1.00;;;20.70;99.90;;;;;;5016321;28;20465;-61
2022/09/10 10:08:55;;;;;;;4.20;1.07;;;20.60;99.90;;;;;;5016270;28;20469;-61
2022/09/10 10:11:37;;;;;;;3.80;1.53;;;20.40;99.90;;;;;;5016004;28;20476;-61
2022/09/10 10:14:12;;;;;;;2.53;1.40;;;20.20;99.90;;;;;;5016360;28;20547;-61
2022/09/10 10:16:39;;;;;;;5.73;1.70;;;20.20;99.90;;;;;;5016237;28;20437;-61
2022/09/10 10:19:28;;;;;;;5.03;1.63;;;20.10;99.90;;;;;;5016218;28;20453;-61
2022/09/10 10:21:54;;;;;;;3.03;1.30;;;19.80;99.90;;;;;;5016642;28;20477;-61
2022/09/10 10:24:31;;;;;;;4.97;1.60;;;19.70;99.90;;;;;;5015708;28;20955;-62
2022/09/10 10:26:58;;;;;;;3.23;1.57;;;19.50;99.90;;;;;;5016377;28;20465;-61
2022/09/10 10:29:26;;;;;;;3.93;1.33;;;19.40;99.90;;;;;;5016680;28;20453;-62
2022/09/10 10:31:54;;;;;;;3.03;1.10;;;19.30;99.90;;;;;;5015876;28;20476;-62
2022/09/10 10:34:52;;;;;;;6.50;1.63;;;19.60;99.90;;;;;;5015921;28;20460;-61
2022/09/10 10:37:33;;;;;;;3.40;1.30;;;19.70;99.90;;;;;;5004080;28;20460;-62
2022/09/10 10:40:13;;;;;;;3.50;1.50;;;19.80;99.90;;;;;;5015933;28;20437;-61
2022/09/10 10:42:45;;;;;;;3.73;2.07;;;19.80;99.90;;;;;;5016150;28;20524;-62
2022/09/10 10:45:36;;;;;;;1.73;1.20;;;19.70;99.90;;;;;;5015788;28;20487;-62
2022/09/10 10:48:10;;;;;;;2.47;0.90;;;19.70;99.90;;;;;;5015292;28;20461;-61
2022/09/10 10:50:52;;;;;;;1.23;1.00;;;19.70;99.90;;;;;;5015402;28;20483;-62
2022/09/10 10:53:30;;;;;;;1.30;1.00;;;19.70;99.90;;;;;;5015452;28;20449;-62
2022/09/10 10:56:06;;;;;;;2.27;0.90;;;19.70;99.90;;;;;;5015462;28;20437;-62
2022/09/10 10:59:17;;;;;;;2.27;1.10;;;19.80;99.90;;;;;;5015440;28;20432;-62
2022/09/10 11:01:49;;;;;;;2.60;1.00;;;19.90;99.90;;;;;;4955065;29;20479;-62
2022/09/10 11:04:26;;;;;;;1.40;0.87;;;20.00;99.90;;;;;;4954874;29;20459;-62
2022/09/10 11:06:57;;;;;;;2.93;0.93;;;20.30;99.90;;;;;;4991925;28;20475;-62
2022/09/10 11:09:26;;;;;;;1.93;0.90;;;20.60;99.90;;;;;;5015191;28;20500;-62
2022/09/10 11:11:58;;;;;;;0.80;0.70;;;20.90;99.90;;;;;;5015169;28;20531;-62
2022/09/10 11:14:31;;;;;;;0.80;0.73;;;21.20;99.90;;;;;;5015028;28;20437;-62
2022/09/10 11:17:02;;;;;;;2.20;1.00;;;21.70;99.90;;;;;;5015043;28;20515;-62
2022/09/10 11:19:35;;;;;;;1.10;0.77;;;22.10;99.90;;;;;;5015322;28;20808;-62
2022/09/10 11:22:09;;;;;;;1.80;1.00;;;22.50;99.90;;;;;;5015153;28;20476;-62
2022/09/10 11:24:41;;;;;;;2.83;1.00;;;22.80;99.90;;;;;;5015093;28;20441;-62
2022/09/10 11:27:13;;;;;;;3.17;1.20;;;23.20;99.90;;;;;;5015140;28;20471;-62
2022/09/10 11:29:43;;;;;;;2.10;0.80;;;23.70;99.90;;;;;;5015130;28;20451;-62
2022/09/10 11:32:18;;;;;;;1.07;1.00;;;24.20;99.90;;;;;;5014876;28;20480;-62
2022/09/10 11:34:53;;;;;;;2.57;1.00;;;24.50;99.90;;;;;;5014548;28;20832;-62
2022/09/10 11:37:28;;;;;;;4.23;1.33;;;24.50;99.90;;;;;;5014688;28;20487;-61
2022/09/10 11:39:59;;;;;;;2.00;0.70;;;24.60;99.90;;;;;;5014594;28;20447;-61
2022/09/10 11:42:35;;;;;;;0.90;0.80;;;24.70;99.90;;;;;;5014371;28;20564;-61
2022/09/10 11:45:13;;;;;;;1.00;1.00;;;24.80;99.90;;;;;;5014515;28;20502;-61
2022/09/10 11:47:44;;;;;;;3.77;0.83;;;24.50;99.90;;;;;;5014910;28;20515;-62
2022/09/10 11:50:22;;;;;;;1.43;0.63;;;24.00;99.90;;;;;;5014684;28;20861;-62
2022/09/10 11:52:49;;;;;;;2.00;1.00;;;23.50;99.90;;;;;;5015874;28;20429;-61
2022/09/10 11:55:17;;;;;;;2.60;1.13;;;23.40;99.90;;;;;;5015381;28;20460;-61
2022/09/10 11:57:56;;;;;;;1.50;0.73;;;23.30;99.90;;;;;;5014900;28;20453;-61
2022/09/10 12:00:24;;;;;;;0.87;0.80;;;22.80;99.90;;;;;;5014392;28;20967;-61
2022/09/10 12:03:33;;;;;;;2.40;0.90;;;22.50;99.90;;;;;;5014674;28;20441;-61
2022/09/10 12:06:05;;;;;;;2.90;0.80;;;22.00;99.90;;;;;;5006847;28;20457;-61
2022/09/10 12:08:47;;;;;;;1.83;0.90;;;21.70;99.90;;;;;;5015582;28;20505;-62
2022/09/10 12:11:23;;;;;;;3.73;0.93;;;21.70;99.90;;;;;;5014863;28;20503;-62
2022/09/10 12:13:52;;;;;;;3.87;1.60;;;22.00;99.90;;;;;;5014531;28;20437;-62
2022/09/10 12:16:28;;;;;;;4.03;2.60;;;22.30;99.90;;;;;;5014658;28;21011;-62
2022/09/10 12:18:56;;;;;;;7.23;2.20;;;22.40;99.90;;;;;;5013939;28;20937;-61
2022/09/10 12:21:32;;;;;;;2.10;1.03;;;22.60;99.90;;;;;;5014137;28;20479;-60
2022/09/10 12:24:00;;;;;;;1.30;1.00;;;22.70;99.90;;;;;;5014453;28;20440;-60
2022/09/10 12:26:27;;;;;;;1.43;1.33;;;22.80;99.90;;;;;;5013879;28;20456;-60
2022/09/10 12:29:06;;;;;;;3.83;1.60;;;23.00;99.90;;;;;;5014309;28;20534;-63
2022/09/10 12:32:06;;;;;;;1.70;1.20;;;23.30;99.90;;;;;;5014273;28;20476;-62
2022/09/10 12:34:32;;;;;;;35.47;4.60;;;23.40;99.90;;;;;;4989464;28;20453;-63
2022/09/10 12:37:19;;;;;;;1.93;1.10;;;23.40;99.90;;;;;;5013931;28;20452;-64
2022/09/10 12:39:47;;;;;;;2.40;0.93;;;23.30;99.90;;;;;;5013603;28;20992;-64
2022/09/10 12:42:32;;;;;;;2.10;1.10;;;23.10;99.90;;;;;;5013428;28;20819;-63
2022/09/10 12:45:00;;;;;;;0.80;0.80;;;22.90;99.90;;;;;;5013915;28;20853;-65
2022/09/10 12:47:49;;;;;;;5.30;1.73;;;22.80;99.90;;;;;;5013770;28;20460;-61
2022/09/10 12:50:32;;;;;;;1.50;1.00;;;22.80;99.90;;;;;;5013705;28;20438;-62
2022/09/10 12:53:54;;;;;;;2.80;1.37;;;22.90;99.90;;;;;;5012298;28;20459;-60
2022/09/10 12:56:50;;;;;;;1.63;0.70;;;23.30;99.90;;;;;;5013793;28;20437;-59
2022/09/10 12:59:48;;;;;;;2.10;1.20;;;23.90;99.90;;;;;;5013676;28;20483;-59
2022/09/10 13:02:28;;;;;;;2.53;1.00;;;24.10;99.90;;;;;;5013497;28;20976;-59
2022/09/10 13:04:59;;;;;;;1.70;0.63;;;24.10;99.90;;;;;;5013345;28;20975;-59
2022/09/10 13:07:36;;;;;;;8.30;1.53;;;24.20;99.90;;;;;;5013250;28;20832;-60
2022/09/10 13:10:06;;;;;;;2.07;1.30;;;24.30;99.90;;;;;;5013665;28;20440;-61
2022/09/10 13:12:35;;;;;;;1.00;0.87;;;24.30;99.90;;;;;;5013701;28;20534;-62
2022/09/10 13:15:03;;;;;;;3.63;1.10;;;24.30;99.90;;;;;;5013400;28;20499;-64
2022/09/10 13:17:40;;;;;;;2.40;1.10;;;24.20;99.90;;;;;;5013039;28;20522;-62
2022/09/10 13:20:30;;;;;;;2.00;1.13;;;24.10;99.40;;;;;;5013393;28;20440;-63
2022/09/10 13:23:00;;;;;;;2.53;1.33;;;24.00;99.90;;;;;;5013487;28;20437;-63
2022/09/10 13:25:40;;;;;;;4.33;1.20;;;23.80;99.90;;;;;;5014081;28;20956;-63
2022/09/10 13:28:45;;;;;;;4.33;0.90;;;23.70;99.90;;;;;;5013267;28;20465;-63
2022/09/10 13:31:18;;;;;;;2.03;0.90;;;23.70;99.90;;;;;;5013282;28;20531;-63
2022/09/10 13:34:08;;;;;;;1.53;1.10;;;23.40;98.70;;;;;;5013236;28;20443;-63
2022/09/10 13:36:40;;;;;;;1.73;0.90;;;23.20;99.90;;;;;;5013220;28;20540;-63
2022/09/10 13:39:35;;;;;;;4.20;1.27;;;23.20;99.90;;;;;;5015553;28;20444;-63
2022/09/10 13:42:19;;;;;;;1.70;1.17;;;23.10;99.90;;;;;;4991594;28;20480;-63
2022/09/10 13:44:59;;;;;;;2.40;1.57;;;23.10;99.90;;;;;;5016343;28;20900;-63
2022/09/10 13:47:35;;;;;;;1.07;0.80;;;23.00;99.90;;;;;;5017750;28;20452;-63
2022/09/10 13:50:13;;;;;;;2.93;1.10;;;23.00;99.90;;;;;;5016575;28;20884;-62
2022/09/10 13:52:43;;;;;;;1.60;1.17;;;22.90;99.90;;;;;;5016753;28;20504;-62
2022/09/10 13:55:18;;;;;;;2.43;1.10;;;22.80;99.90;;;;;;5016617;28;20433;-62
2022/09/10 13:57:47;;;;;;;2.53;1.07;;;22.70;99.90;;;;;;5016626;28;20465;-62
2022/09/10 14:00:22;;;;;;;1.13;0.77;;;22.60;99.90;;;;;;5016385;28;20868;-62
2022/09/10 14:02:51;;;;;;;1.40;0.80;;;22.50;99.90;;;;;;5016574;28;20515;-62
2022/09/10 14:05:33;;;;;;;2.30;1.00;;;22.40;99.90;;;;;;5016072;28;20452;-65
2022/09/10 14:08:04;;;;;;;1.97;1.23;;;22.30;99.90;;;;;;5015877;28;20799;-63
2022/09/10 14:10:47;;;;;;;1.93;1.33;;;22.20;99.90;;;;;;5016182;28;20544;-63
2022/09/10 14:13:14;;;;;;;1.43;1.30;;;22.00;99.90;;;;;;5016305;28;20473;-63
2022/09/10 14:15:41;;;;;;;1.10;1.00;;;21.90;99.90;;;;;;5016211;28;20503;-63
2022/09/10 14:18:09;;;;;;;3.57;1.30;;;21.70;99.90;;;;;;5016108;28;20843;-63
2022/09/10 14:20:39;;;;;;;1.90;1.20;;;21.70;99.90;;;;;;5015922;28;20813;-62
2022/09/10 14:23:07;;;;;;;2.20;1.43;;;21.60;99.90;;;;;;5016077;28;20437;-63
2022/09/10 14:25:36;;;;;;;1.60;1.10;;;21.60;99.90;;;;;;5015899;28;20461;-62
2022/09/10 14:28:27;;;;;;;5.37;2.40;;;21.50;99.90;;;;;;5015799;28;20531;-62
2022/09/10 14:31:17;;;;;;;2.10;1.20;;;21.50;99.90;;;;;;5000969;28;20558;-61
2022/09/10 14:33:44;;;;;;;3.47;1.10;;;21.40;99.90;;;;;;5015790;28;20524;-61
2022/09/10 14:36:18;;;;;;;1.60;1.20;;;21.40;99.90;;;;;;5015684;28;20457;-62
2022/09/10 14:38:53;;;;;;;1.00;0.90;;;21.20;99.90;;;;;;5015374;28;20936;-62
2022/09/10 14:41:22;;;;;;;2.40;1.40;;;21.10;99.90;;;;;;5015618;28;20476;-62
2022/09/10 14:43:50;;;;;;;1.27;1.00;;;20.80;99.90;;;;;;5015194;28;20937;-62
2022/09/10 14:46:48;;;;;;;2.67;1.47;;;20.60;99.90;;;;;;5015569;28;20489;-62
2022/09/10 14:49:17;;;;;;;2.47;1.13;;;20.50;99.90;;;;;;5015152;28;20465;-62
2022/09/10 14:51:46;;;;;;;1.83;0.90;;;20.50;99.90;;;;;;5015331;28;20841;-62
2022/09/10 14:54:13;;;;;;;1.93;1.30;;;20.50;99.90;;;;;;5015348;28;20523;-62
2022/09/10 14:56:42;;;;;;;1.73;1.40;;;20.60;99.90;;;;;;5015878;28;20460;-62
2022/09/10 14:59:14;;;;;;;1.53;1.00;;;20.70;99.90;;;;;;5015439;28;20455;-62
2022/09/10 15:01:41;;;;;;;2.20;1.20;;;20.80;99.90;;;;;;5014903;28;20567;-61
2022/09/10 15:04:12;;;;;;;1.93;0.97;;;20.80;99.90;;;;;;5015334;28;20511;-62
2022/09/10 15:06:39;;;;;;;1.83;0.97;;;20.80;99.90;;;;;;5015371;28;20491;-61
2022/09/10 15:09:07;;;;;;;1.10;1.00;;;20.90;99.90;;;;;;5015210;28;20476;-62
2022/09/10 15:11:36;;;;;;;2.73;1.40;;;20.80;99.90;;;;;;5015272;28;20473;-62
2022/09/10 15:14:02;;;;;;;1.90;1.10;;;20.80;99.90;;;;;;5015182;28;20550;-61
2022/09/10 15:16:29;;;;;;;2.43;1.20;;;20.70;99.90;;;;;;5015566;28;20503;-61
2022/09/10 15:18:57;;;;;;;2.77;1.47;;;20.70;99.90;;;;;;5014997;28;20607;-62
2022/09/10 15:21:24;;;;;;;1.10;1.00;;;20.60;99.90;;;;;;5015019;28;20469;-62
2022/09/10 15:23:50;;;;;;;3.17;1.80;;;20.60;99.90;;;;;;5014825;28;20487;-61
2022/09/10 15:26:18;;;;;;;1.50;1.40;;;20.50;99.90;;;;;;5014882;28;20453;-62
2022/09/10 15:28:45;;;;;;;1.60;1.43;;;20.50;99.90;;;;;;5014859;28;20543;-62
2022/09/10 15:31:11;;;;;;;2.63;1.40;;;20.40;99.90;;;;;;5014949;28;20535;-62
2022/09/10 15:33:38;;;;;;;2.30;1.40;;;20.40;99.90;;;;;;5014800;28;20468;-62
2022/09/10 15:36:06;;;;;;;2.57;1.70;;;20.30;99.90;;;;;;5014829;28;20452;-61
2022/09/10 15:38:33;;;;;;;4.33;1.77;;;20.10;99.90;;;;;;5015032;28;20449;-62
2022/09/10 15:41:08;;;;;;;1.87;1.57;;;19.90;99.90;;;;;;5014939;28;20838;-62
2022/09/10 15:43:40;;;;;;;3.93;2.40;;;19.60;99.90;;;;;;5015231;28;20532;-62
2022/09/10 15:46:07;;;;;;;10.00;3.07;;;19.30;99.90;;;;;;5014646;28;20447;-62
2022/09/10 15:48:34;;;;;;;3.00;1.87;;;19.10;99.90;;;;;;5014474;28;20477;-62
2022/09/10 15:51:04;;;;;;;5.57;1.80;;;18.90;99.90;;;;;;5014875;28;20477;-62
2022/09/10 15:53:32;;;;;;;3.07;2.00;;;18.70;99.90;;;;;;5014124;28;20445;-62
2022/09/10 15:56:01;;;;;;;2.67;1.70;;;18.60;99.90;;;;;;5015292;28;20530;-62
2022/09/10 15:58:28;;;;;;;1.80;1.70;;;18.40;99.90;;;;;;5015883;28;20576;-62
2022/09/10 16:01:01;;;;;;;3.33;1.33;;;18.30;99.90;;;;;;5013776;28;20520;-60
2022/09/10 16:03:28;;;;;;;3.13;1.87;;;18.20;99.90;;;;;;5014875;28;20441;-60
2022/09/10 16:06:00;;;;;;;1.97;1.63;;;18.10;99.90;;;;;;5014584;28;20457;-60
2022/09/10 16:08:26;;;;;;;4.13;1.87;;;18.10;99.90;;;;;;5015185;28;20917;-63
2022/09/10 16:10:53;;;;;;;5.17;1.73;;;18.10;99.90;;;;;;5014184;28;20477;-63
2022/09/10 16:13:20;;;;;;;5.73;2.27;;;18.10;99.90;;;;;;5014327;28;20441;-63
2022/09/10 16:15:59;;;;;;;3.13;1.53;;;18.20;99.90;;;;;;5014064;28;20507;-63
2022/09/10 16:18:27;;;;;;;4.47;1.90;;;18.10;99.90;;;;;;5014103;28;20433;-63
2022/09/10 16:20:53;;;;;;;1.53;1.43;;;18.10;99.90;;;;;;5014536;28;20515;-62
2022/09/10 16:23:22;;;;;;;3.10;1.40;;;18.10;99.90;;;;;;5013950;28;20447;-62
2022/09/10 16:25:52;;;;;;;1.47;1.30;;;18.10;99.90;;;;;;5013868;28;20456;-62
2022/09/10 16:28:18;;;;;;;3.47;1.27;;;18.10;99.90;;;;;;5014188;28;20463;-62
2022/09/10 16:30:46;;;;;;;4.20;1.30;;;18.10;99.90;;;;;;5014203;28;20543;-62
2022/09/10 16:33:14;;;;;;;2.43;1.13;;;18.10;99.90;;;;;;5014517;28;21015;-62
2022/09/10 16:35:41;;;;;;;3.70;1.80;;;18.00;99.90;;;;;;5013842;28;20552;-62
2022/09/10 16:38:07;;;;;;;1.20;1.20;;;18.00;99.90;;;;;;5013913;28;20460;-62
2022/09/10 16:40:34;;;;;;;2.30;1.10;;;18.00;99.90;;;;;;5013780;28;20453;-62
2022/09/10 16:43:01;;;;;;;2.50;1.20;;;17.90;99.90;;;;;;5013613;28;20458;-63
2022/09/10 16:45:28;;;;;;;2.23;1.27;;;17.90;99.90;;;;;;5013762;28;20468;-62
2022/09/10 16:47:56;;;;;;;1.20;1.20;;;17.80;99.90;;;;;;5013707;28;20460;-63
2022/09/10 16:50:25;;;;;;;2.20;1.63;;;17.80;99.90;;;;;;5013402;28;20980;-63
2022/09/10 16:52:53;;;;;;;2.43;1.60;;;17.80;99.90;;;;;;5013419;28;20956;-63
2022/09/10 16:55:21;;;;;;;1.40;1.30;;;17.80;99.90;;;;;;5013632;28;20459;-63
2022/09/10 16:57:48;;;;;;;1.47;1.27;;;17.80;99.90;;;;;;5013710;28;20481;-62
2022/09/10 17:00:15;;;;;;;1.40;1.30;;;17.80;99.90;;;;;;5013410;28;20507;-62
2022/09/10 17:02:41;;;;;;;1.30;1.20;;;17.70;99.90;;;;;;5013670;28;20448;-62
2022/09/10 17:05:10;;;;;;;2.57;1.50;;;17.80;99.90;;;;;;5013599;28;20464;-62
2022/09/10 17:07:38;;;;;;;7.93;1.47;;;17.80;99.90;;;;;;5014250;28;20464;-62